메인 페이지
METAR-TAF:

METAR-TAF

공항 :

애빌린, 텍사스, 미국

위도: 32-24-37N, 경도: 099-40-54W, 고도: 545m

현재 날씨관측

예보는 22분 전, 16:15시(UTC)에 발표되었습니다.
6kt
온도 25°C
습도 89%
기압 1023 hPa
시정: 12.9km
고도 1100ft 상공 구름 조금
고도 2700ft 상공 구름 많음
고도 7000ft 상공 흐림
약한비

METAR: KABI 201615Z 08006KT 8SM -RA FEW011 BKN027 OVC070 25/23 A3022 RMK AO2 RAB03 P0000 T02500228

시각: 11:37 (16:37 UTC)

예보

예보는 2 시간 16분 전, 14:21시(UTC)에 발표되었습니다.
예보 대상 시간: 20일 14시부터 21일 12시까지 (UTC)
8kt
시정: 8.0km
고도 600ft 상공 흐림
박무
20일 1800시부터 (UTC)
9kt
시정: 10km
고도 5000ft 상공 구름 많음
20일 2000시부터 (UTC)
10kt, 순간 최대 풍속 18kt
시정: 10km
고도 5000ft 상공 흐림
21일 0100시부터 (UTC)
여러 방향의 바람 6kt
시정: 10km
고도 25000ft 상공 흐림

TAF: KABI 201421Z 2014/2112 09008KT 5SM BR OVC006 FM201800 09009KT P6SM BKN050 FM202000 09010G18KT P6SM OVC050 FM210100 VRB06KT P6SM OVC250

4,000개 이상의 공항 관측 자료 및 예보 (METAR 및 TAF 보고).

지도상에서 검색 가능한 기상관측소가 노란 점과 빨간 점으로 표시되어 있습니다.

기상관측소 명을 보려면 표시 위로 마우스를 이동하세요.

날씨 관측과 예보를 보려면 클릭하세요.

지도 변경 : 확대하려면 엑스 표시가 있는 녹색 버튼, 축소하려면 빼기 표시가 있는 녹색 버튼, 다음 페이지의 지도를 보려면 녹색 화살표를 클릭하세요.


METAR-TAF: